sensor_id;sensor_type;location;lat;lon;timestamp;P1;durP1;ratioP1;P2;durP2;ratioP2
25982;SDS011;13773;48.868;10.730;2023-02-20T00:00:23;12.03;;;5.60;;
25982;SDS011;13773;48.868;10.730;2023-02-20T00:02:51;9.33;;;4.60;;
25982;SDS011;13773;48.868;10.730;2023-02-20T00:05:17;7.87;;;5.53;;
25982;SDS011;13773;48.868;10.730;2023-02-20T00:07:42;8.73;;;5.43;;
25982;SDS011;13773;48.868;10.730;2023-02-20T00:10:08;9.13;;;5.33;;
25982;SDS011;13773;48.868;10.730;2023-02-20T00:12:35;9.20;;;5.20;;
25982;SDS011;13773;48.868;10.730;2023-02-20T00:15:01;8.40;;;5.30;;
25982;SDS011;13773;48.868;10.730;2023-02-20T00:17:28;10.93;;;5.37;;
25982;SDS011;13773;48.868;10.730;2023-02-20T00:19:54;9.37;;;5.10;;
25982;SDS011;13773;48.868;10.730;2023-02-20T00:22:23;12.50;;;5.50;;
25982;SDS011;13773;48.868;10.730;2023-02-20T00:24:50;7.70;;;5.03;;
25982;SDS011;13773;48.868;10.730;2023-02-20T00:27:16;9.77;;;5.50;;
25982;SDS011;13773;48.868;10.730;2023-02-20T00:29:43;7.33;;;4.97;;
25982;SDS011;13773;48.868;10.730;2023-02-20T00:32:09;9.43;;;5.10;;
25982;SDS011;13773;48.868;10.730;2023-02-20T00:34:35;7.30;;;5.47;;
25982;SDS011;13773;48.868;10.730;2023-02-20T00:37:01;12.93;;;5.13;;
25982;SDS011;13773;48.868;10.730;2023-02-20T00:39:26;8.27;;;5.47;;
25982;SDS011;13773;48.868;10.730;2023-02-20T00:41:52;9.47;;;4.70;;
25982;SDS011;13773;48.868;10.730;2023-02-20T00:44:19;10.30;;;4.60;;
25982;SDS011;13773;48.868;10.730;2023-02-20T00:46:45;11.03;;;5.20;;
25982;SDS011;13773;48.868;10.730;2023-02-20T00:49:11;8.50;;;5.30;;
25982;SDS011;13773;48.868;10.730;2023-02-20T00:51:37;5.50;;;4.47;;
25982;SDS011;13773;48.868;10.730;2023-02-20T00:54:02;11.33;;;4.97;;
25982;SDS011;13773;48.868;10.730;2023-02-20T00:56:28;7.70;;;4.60;;
25982;SDS011;13773;48.868;10.730;2023-02-20T00:58:54;8.97;;;5.10;;
25982;SDS011;13773;48.868;10.730;2023-02-20T01:01:20;9.03;;;4.90;;
25982;SDS011;13773;48.868;10.730;2023-02-20T01:03:46;9.50;;;5.23;;
25982;SDS011;13773;48.868;10.730;2023-02-20T01:06:12;6.50;;;4.80;;
25982;SDS011;13773;48.868;10.730;2023-02-20T01:08:38;9.03;;;5.00;;
25982;SDS011;13773;48.868;10.730;2023-02-20T01:11:03;9.87;;;5.07;;
25982;SDS011;13773;48.868;10.730;2023-02-20T01:13:29;9.70;;;5.47;;
25982;SDS011;13773;48.868;10.730;2023-02-20T01:15:55;11.03;;;5.43;;
25982;SDS011;13773;48.868;10.730;2023-02-20T01:18:21;10.97;;;5.83;;
25982;SDS011;13773;48.868;10.730;2023-02-20T01:20:46;10.57;;;5.43;;
25982;SDS011;13773;48.868;10.730;2023-02-20T01:23:12;8.43;;;5.90;;
25982;SDS011;13773;48.868;10.730;2023-02-20T01:25:38;10.50;;;5.97;;
25982;SDS011;13773;48.868;10.730;2023-02-20T01:28:03;9.97;;;5.17;;
25982;SDS011;13773;48.868;10.730;2023-02-20T01:30:30;9.57;;;5.07;;
25982;SDS011;13773;48.868;10.730;2023-02-20T01:32:55;7.83;;;5.47;;
25982;SDS011;13773;48.868;10.730;2023-02-20T01:35:21;7.77;;;4.90;;
25982;SDS011;13773;48.868;10.730;2023-02-20T01:37:47;9.20;;;5.20;;
25982;SDS011;13773;48.868;10.730;2023-02-20T01:40:17;9.17;;;5.70;;
25982;SDS011;13773;48.868;10.730;2023-02-20T01:42:47;7.03;;;5.47;;
25982;SDS011;13773;48.868;10.730;2023-02-20T01:45:34;10.50;;;5.97;;
25982;SDS011;13773;48.868;10.730;2023-02-20T01:48:01;7.03;;;5.37;;
25982;SDS011;13773;48.868;10.730;2023-02-20T01:50:37;8.40;;;5.60;;
25982;SDS011;13773;48.868;10.730;2023-02-20T01:53:07;8.07;;;5.50;;
25982;SDS011;13773;48.868;10.730;2023-02-20T01:55:48;10.63;;;6.00;;
25982;SDS011;13773;48.868;10.730;2023-02-20T01:58:42;10.17;;;5.53;;
25982;SDS011;13773;48.868;10.730;2023-02-20T02:01:11;9.57;;;5.27;;
25982;SDS011;13773;48.868;10.730;2023-02-20T02:03:38;11.83;;;6.40;;
25982;SDS011;13773;48.868;10.730;2023-02-20T02:06:08;11.50;;;5.63;;
25982;SDS011;13773;48.868;10.730;2023-02-20T02:08:36;13.00;;;5.93;;
25982;SDS011;13773;48.868;10.730;2023-02-20T02:11:07;11.67;;;7.20;;
25982;SDS011;13773;48.868;10.730;2023-02-20T02:13:36;10.17;;;6.20;;
25982;SDS011;13773;48.868;10.730;2023-02-20T02:16:24;6.80;;;5.87;;
25982;SDS011;13773;48.868;10.730;2023-02-20T02:19:06;8.83;;;6.37;;
25982;SDS011;13773;48.868;10.730;2023-02-20T02:28:03;9.17;;;6.00;;
25982;SDS011;13773;48.868;10.730;2023-02-20T02:33:27;10.03;;;6.20;;
25982;SDS011;13773;48.868;10.730;2023-02-20T02:41:50;12.33;;;6.37;;
25982;SDS011;13773;48.868;10.730;2023-02-20T02:44:41;12.57;;;6.33;;
25982;SDS011;13773;48.868;10.730;2023-02-20T02:49:51;12.03;;;6.90;;
25982;SDS011;13773;48.868;10.730;2023-02-20T02:52:29;9.97;;;6.63;;
25982;SDS011;13773;48.868;10.730;2023-02-20T02:55:05;10.20;;;7.03;;
25982;SDS011;13773;48.868;10.730;2023-02-20T02:57:32;12.10;;;6.63;;
25982;SDS011;13773;48.868;10.730;2023-02-20T03:02:39;10.30;;;7.30;;
25982;SDS011;13773;48.868;10.730;2023-02-20T03:05:13;10.27;;;7.30;;
25982;SDS011;13773;48.868;10.730;2023-02-20T03:07:42;10.67;;;7.03;;
25982;SDS011;13773;48.868;10.730;2023-02-20T03:10:11;10.50;;;6.73;;
25982;SDS011;13773;48.868;10.730;2023-02-20T03:12:44;10.87;;;7.03;;
25982;SDS011;13773;48.868;10.730;2023-02-20T03:15:21;12.53;;;7.30;;
25982;SDS011;13773;48.868;10.730;2023-02-20T03:18:02;10.73;;;6.23;;
25982;SDS011;13773;48.868;10.730;2023-02-20T03:20:50;11.03;;;6.03;;
25982;SDS011;13773;48.868;10.730;2023-02-20T03:23:25;9.90;;;6.10;;
25982;SDS011;13773;48.868;10.730;2023-02-20T03:26:00;12.43;;;6.83;;
25982;SDS011;13773;48.868;10.730;2023-02-20T03:28:43;11.50;;;5.97;;
25982;SDS011;13773;48.868;10.730;2023-02-20T03:31:26;9.73;;;6.23;;
25982;SDS011;13773;48.868;10.730;2023-02-20T03:34:05;12.13;;;6.70;;
25982;SDS011;13773;48.868;10.730;2023-02-20T03:37:12;11.37;;;6.40;;
25982;SDS011;13773;48.868;10.730;2023-02-20T03:40:02;12.20;;;6.50;;
25982;SDS011;13773;48.868;10.730;2023-02-20T03:42:51;11.43;;;6.37;;
25982;SDS011;13773;48.868;10.730;2023-02-20T03:45:39;10.17;;;6.17;;
25982;SDS011;13773;48.868;10.730;2023-02-20T03:48:27;10.67;;;5.90;;
25982;SDS011;13773;48.868;10.730;2023-02-20T03:50:54;10.67;;;5.63;;
25982;SDS011;13773;48.868;10.730;2023-02-20T03:53:20;7.70;;;5.47;;
25982;SDS011;13773;48.868;10.730;2023-02-20T03:55:47;13.80;;;5.57;;
25982;SDS011;13773;48.868;10.730;2023-02-20T03:58:15;7.90;;;5.67;;
25982;SDS011;13773;48.868;10.730;2023-02-20T04:00:47;9.90;;;5.80;;
25982;SDS011;13773;48.868;10.730;2023-02-20T04:03:18;8.47;;;5.37;;
25982;SDS011;13773;48.868;10.730;2023-02-20T04:05:48;13.73;;;6.10;;
25982;SDS011;13773;48.868;10.730;2023-02-20T04:08:23;7.33;;;5.20;;
25982;SDS011;13773;48.868;10.730;2023-02-20T04:11:13;8.97;;;5.77;;
25982;SDS011;13773;48.868;10.730;2023-02-20T04:13:46;9.60;;;5.67;;
25982;SDS011;13773;48.868;10.730;2023-02-20T04:16:14;7.27;;;5.80;;
25982;SDS011;13773;48.868;10.730;2023-02-20T04:18:40;7.60;;;5.67;;
25982;SDS011;13773;48.868;10.730;2023-02-20T04:21:08;6.73;;;5.57;;
25982;SDS011;13773;48.868;10.730;2023-02-20T04:23:43;8.57;;;5.70;;
25982;SDS011;13773;48.868;10.730;2023-02-20T04:26:12;9.17;;;6.03;;
25982;SDS011;13773;48.868;10.730;2023-02-20T04:28:42;9.37;;;5.50;;
25982;SDS011;13773;48.868;10.730;2023-02-20T04:31:10;9.80;;;4.87;;
25982;SDS011;13773;48.868;10.730;2023-02-20T04:33:38;8.30;;;5.23;;
25982;SDS011;13773;48.868;10.730;2023-02-20T04:36:03;6.30;;;5.17;;
25982;SDS011;13773;48.868;10.730;2023-02-20T04:38:30;8.30;;;5.33;;
25982;SDS011;13773;48.868;10.730;2023-02-20T04:40:55;7.50;;;4.77;;
25982;SDS011;13773;48.868;10.730;2023-02-20T04:43:21;8.83;;;5.30;;
25982;SDS011;13773;48.868;10.730;2023-02-20T04:45:46;11.47;;;5.40;;
25982;SDS011;13773;48.868;10.730;2023-02-20T04:48:12;8.63;;;5.30;;
25982;SDS011;13773;48.868;10.730;2023-02-20T04:50:38;8.40;;;4.83;;
25982;SDS011;13773;48.868;10.730;2023-02-20T04:53:05;8.70;;;4.70;;
25982;SDS011;13773;48.868;10.730;2023-02-20T04:55:31;7.17;;;4.47;;
25982;SDS011;13773;48.868;10.730;2023-02-20T04:57:57;7.57;;;4.40;;
25982;SDS011;13773;48.868;10.730;2023-02-20T05:00:23;7.40;;;4.70;;
25982;SDS011;13773;48.868;10.730;2023-02-20T05:02:50;10.17;;;4.90;;
25982;SDS011;13773;48.868;10.730;2023-02-20T05:05:18;7.07;;;5.00;;
25982;SDS011;13773;48.868;10.730;2023-02-20T05:07:46;12.40;;;4.60;;
25982;SDS011;13773;48.868;10.730;2023-02-20T05:10:15;7.73;;;4.50;;
25982;SDS011;13773;48.868;10.730;2023-02-20T05:12:42;8.93;;;4.63;;
25982;SDS011;13773;48.868;10.730;2023-02-20T05:15:08;7.33;;;4.90;;
25982;SDS011;13773;48.868;10.730;2023-02-20T05:17:34;8.47;;;4.70;;
25982;SDS011;13773;48.868;10.730;2023-02-20T05:20:00;7.10;;;4.80;;
25982;SDS011;13773;48.868;10.730;2023-02-20T05:22:26;6.87;;;3.80;;
25982;SDS011;13773;48.868;10.730;2023-02-20T05:24:52;10.57;;;4.57;;
25982;SDS011;13773;48.868;10.730;2023-02-20T05:27:19;7.07;;;4.00;;
25982;SDS011;13773;48.868;10.730;2023-02-20T05:29:46;7.57;;;4.47;;
25982;SDS011;13773;48.868;10.730;2023-02-20T05:32:14;7.87;;;4.47;;
25982;SDS011;13773;48.868;10.730;2023-02-20T05:34:41;7.00;;;3.60;;
25982;SDS011;13773;48.868;10.730;2023-02-20T05:37:11;6.70;;;4.17;;
25982;SDS011;13773;48.868;10.730;2023-02-20T05:39:38;9.03;;;5.30;;
25982;SDS011;13773;48.868;10.730;2023-02-20T05:42:04;13.30;;;4.93;;
25982;SDS011;13773;48.868;10.730;2023-02-20T05:44:30;7.00;;;4.10;;
25982;SDS011;13773;48.868;10.730;2023-02-20T05:46:56;8.23;;;4.47;;
25982;SDS011;13773;48.868;10.730;2023-02-20T05:49:22;5.70;;;4.13;;
25982;SDS011;13773;48.868;10.730;2023-02-20T05:51:48;6.40;;;4.10;;
25982;SDS011;13773;48.868;10.730;2023-02-20T05:54:15;7.33;;;4.80;;
25982;SDS011;13773;48.868;10.730;2023-02-20T05:56:42;8.47;;;4.50;;
25982;SDS011;13773;48.868;10.730;2023-02-20T05:59:08;8.23;;;4.60;;
25982;SDS011;13773;48.868;10.730;2023-02-20T06:01:35;10.10;;;4.73;;
25982;SDS011;13773;48.868;10.730;2023-02-20T06:04:01;9.43;;;5.13;;
25982;SDS011;13773;48.868;10.730;2023-02-20T06:06:34;7.53;;;5.90;;
25982;SDS011;13773;48.868;10.730;2023-02-20T06:09:02;9.73;;;5.90;;
25982;SDS011;13773;48.868;10.730;2023-02-20T06:11:31;10.40;;;5.80;;
25982;SDS011;13773;48.868;10.730;2023-02-20T06:13:57;9.83;;;5.40;;
25982;SDS011;13773;48.868;10.730;2023-02-20T06:16:23;8.73;;;4.80;;
25982;SDS011;13773;48.868;10.730;2023-02-20T06:18:51;8.67;;;5.27;;
25982;SDS011;13773;48.868;10.730;2023-02-20T06:21:17;7.20;;;5.67;;
25982;SDS011;13773;48.868;10.730;2023-02-20T06:23:44;8.63;;;5.17;;
25982;SDS011;13773;48.868;10.730;2023-02-20T06:26:10;10.53;;;6.27;;
25982;SDS011;13773;48.868;10.730;2023-02-20T06:28:36;7.73;;;5.20;;
25982;SDS011;13773;48.868;10.730;2023-02-20T06:31:03;9.00;;;5.33;;
25982;SDS011;13773;48.868;10.730;2023-02-20T06:33:30;9.17;;;5.13;;
25982;SDS011;13773;48.868;10.730;2023-02-20T06:35:55;8.73;;;5.20;;
25982;SDS011;13773;48.868;10.730;2023-02-20T06:38:21;10.53;;;5.63;;
25982;SDS011;13773;48.868;10.730;2023-02-20T06:40:48;7.83;;;4.73;;
25982;SDS011;13773;48.868;10.730;2023-02-20T06:43:13;9.57;;;4.93;;
25982;SDS011;13773;48.868;10.730;2023-02-20T06:45:39;8.37;;;4.90;;
25982;SDS011;13773;48.868;10.730;2023-02-20T06:48:05;10.10;;;4.83;;
25982;SDS011;13773;48.868;10.730;2023-02-20T06:50:31;9.20;;;4.67;;
25982;SDS011;13773;48.868;10.730;2023-02-20T06:52:56;8.03;;;4.70;;
25982;SDS011;13773;48.868;10.730;2023-02-20T06:55:22;9.30;;;5.17;;
25982;SDS011;13773;48.868;10.730;2023-02-20T06:57:48;9.50;;;5.17;;
25982;SDS011;13773;48.868;10.730;2023-02-20T07:00:14;7.87;;;5.27;;
25982;SDS011;13773;48.868;10.730;2023-02-20T07:02:40;8.30;;;5.20;;
25982;SDS011;13773;48.868;10.730;2023-02-20T07:05:06;10.47;;;5.53;;
25982;SDS011;13773;48.868;10.730;2023-02-20T07:07:33;8.63;;;5.43;;
25982;SDS011;13773;48.868;10.730;2023-02-20T07:09:59;10.83;;;6.03;;
25982;SDS011;13773;48.868;10.730;2023-02-20T07:12:28;10.30;;;5.57;;
25982;SDS011;13773;48.868;10.730;2023-02-20T07:14:55;11.03;;;6.90;;
25982;SDS011;13773;48.868;10.730;2023-02-20T07:17:20;10.47;;;5.30;;
25982;SDS011;13773;48.868;10.730;2023-02-20T07:19:46;9.13;;;5.00;;
25982;SDS011;13773;48.868;10.730;2023-02-20T07:22:12;6.27;;;4.57;;
25982;SDS011;13773;48.868;10.730;2023-02-20T07:24:38;7.47;;;4.73;;
25982;SDS011;13773;48.868;10.730;2023-02-20T07:27:05;8.37;;;4.37;;
25982;SDS011;13773;48.868;10.730;2023-02-20T07:29:34;10.03;;;4.63;;
25982;SDS011;13773;48.868;10.730;2023-02-20T07:32:05;11.03;;;4.70;;
25982;SDS011;13773;48.868;10.730;2023-02-20T07:34:33;6.60;;;3.67;;
25982;SDS011;13773;48.868;10.730;2023-02-20T07:36:58;7.40;;;4.13;;
25982;SDS011;13773;48.868;10.730;2023-02-20T07:39:25;7.03;;;4.03;;
25982;SDS011;13773;48.868;10.730;2023-02-20T07:41:51;7.00;;;4.10;;
25982;SDS011;13773;48.868;10.730;2023-02-20T07:44:17;5.90;;;3.80;;
25982;SDS011;13773;48.868;10.730;2023-02-20T07:46:42;6.40;;;4.10;;
25982;SDS011;13773;48.868;10.730;2023-02-20T07:49:08;6.07;;;4.33;;
25982;SDS011;13773;48.868;10.730;2023-02-20T07:51:34;7.67;;;4.70;;
25982;SDS011;13773;48.868;10.730;2023-02-20T07:54:00;8.30;;;4.07;;
25982;SDS011;13773;48.868;10.730;2023-02-20T07:56:25;9.10;;;4.77;;
25982;SDS011;13773;48.868;10.730;2023-02-20T07:58:51;5.90;;;3.47;;
25982;SDS011;13773;48.868;10.730;2023-02-20T08:01:17;6.53;;;4.10;;
25982;SDS011;13773;48.868;10.730;2023-02-20T08:03:43;6.97;;;4.73;;
25982;SDS011;13773;48.868;10.730;2023-02-20T08:06:11;6.03;;;4.10;;
25982;SDS011;13773;48.868;10.730;2023-02-20T08:08:37;7.20;;;4.07;;
25982;SDS011;13773;48.868;10.730;2023-02-20T08:11:04;6.80;;;4.03;;
25982;SDS011;13773;48.868;10.730;2023-02-20T08:13:30;7.03;;;4.27;;
25982;SDS011;13773;48.868;10.730;2023-02-20T08:15:56;10.60;;;4.43;;
25982;SDS011;13773;48.868;10.730;2023-02-20T08:18:22;6.07;;;4.00;;
25982;SDS011;13773;48.868;10.730;2023-02-20T08:20:48;7.90;;;3.47;;
25982;SDS011;13773;48.868;10.730;2023-02-20T08:23:17;5.60;;;4.10;;
25982;SDS011;13773;48.868;10.730;2023-02-20T08:25:45;5.60;;;3.53;;
25982;SDS011;13773;48.868;10.730;2023-02-20T08:28:11;6.70;;;3.93;;
25982;SDS011;13773;48.868;10.730;2023-02-20T08:30:37;6.37;;;4.03;;
25982;SDS011;13773;48.868;10.730;2023-02-20T08:33:03;5.17;;;3.40;;
25982;SDS011;13773;48.868;10.730;2023-02-20T08:35:30;6.97;;;4.00;;
25982;SDS011;13773;48.868;10.730;2023-02-20T08:38:00;8.57;;;3.40;;
25982;SDS011;13773;48.868;10.730;2023-02-20T08:40:30;5.30;;;3.70;;
25982;SDS011;13773;48.868;10.730;2023-02-20T08:42:56;9.50;;;4.00;;
25982;SDS011;13773;48.868;10.730;2023-02-20T08:45:22;5.60;;;3.90;;
25982;SDS011;13773;48.868;10.730;2023-02-20T08:47:48;4.67;;;3.50;;
25982;SDS011;13773;48.868;10.730;2023-02-20T08:50:15;6.13;;;3.80;;
25982;SDS011;13773;48.868;10.730;2023-02-20T08:52:43;5.57;;;3.60;;
25982;SDS011;13773;48.868;10.730;2023-02-20T08:55:10;5.33;;;3.70;;
25982;SDS011;13773;48.868;10.730;2023-02-20T08:57:36;5.70;;;3.83;;
25982;SDS011;13773;48.868;10.730;2023-02-20T09:00:05;7.00;;;4.73;;
25982;SDS011;13773;48.868;10.730;2023-02-20T09:02:31;7.27;;;3.90;;
25982;SDS011;13773;48.868;10.730;2023-02-20T09:04:57;6.47;;;3.40;;
25982;SDS011;13773;48.868;10.730;2023-02-20T09:07:23;6.40;;;3.80;;
25982;SDS011;13773;48.868;10.730;2023-02-20T09:09:49;5.87;;;3.70;;
25982;SDS011;13773;48.868;10.730;2023-02-20T09:12:16;6.10;;;3.63;;
25982;SDS011;13773;48.868;10.730;2023-02-20T09:14:42;8.03;;;5.07;;
25982;SDS011;13773;48.868;10.730;2023-02-20T09:17:07;6.83;;;3.63;;
25982;SDS011;13773;48.868;10.730;2023-02-20T09:19:33;5.77;;;3.60;;
25982;SDS011;13773;48.868;10.730;2023-02-20T09:21:59;4.77;;;3.20;;
25982;SDS011;13773;48.868;10.730;2023-02-20T09:24:25;6.77;;;3.60;;
25982;SDS011;13773;48.868;10.730;2023-02-20T09:26:55;10.10;;;4.03;;
25982;SDS011;13773;48.868;10.730;2023-02-20T09:29:21;4.70;;;3.40;;
25982;SDS011;13773;48.868;10.730;2023-02-20T09:31:47;7.87;;;4.13;;
25982;SDS011;13773;48.868;10.730;2023-02-20T09:34:13;8.17;;;3.60;;
25982;SDS011;13773;48.868;10.730;2023-02-20T09:36:38;6.03;;;3.67;;
25982;SDS011;13773;48.868;10.730;2023-02-20T09:39:04;4.60;;;3.70;;
25982;SDS011;13773;48.868;10.730;2023-02-20T09:46:46;6.90;;;3.60;;
25982;SDS011;13773;48.868;10.730;2023-02-20T09:51:51;8.73;;;3.30;;
25982;SDS011;13773;48.868;10.730;2023-02-20T09:54:26;7.53;;;3.33;;
25982;SDS011;13773;48.868;10.730;2023-02-20T09:57:02;6.30;;;3.10;;
25982;SDS011;13773;48.868;10.730;2023-02-20T09:59:36;6.43;;;4.17;;
25982;SDS011;13773;48.868;10.730;2023-02-20T10:04:52;5.03;;;3.43;;
25982;SDS011;13773;48.868;10.730;2023-02-20T10:07:33;7.07;;;3.53;;
25982;SDS011;13773;48.868;10.730;2023-02-20T10:10:16;7.37;;;3.30;;
25982;SDS011;13773;48.868;10.730;2023-02-20T10:12:44;4.63;;;2.37;;
25982;SDS011;13773;48.868;10.730;2023-02-20T10:21:26;3.23;;;1.83;;
25982;SDS011;13773;48.868;10.730;2023-02-20T10:26:41;4.83;;;1.97;;
25982;SDS011;13773;48.868;10.730;2023-02-20T10:29:19;4.67;;;2.00;;
25982;SDS011;13773;48.868;10.730;2023-02-20T10:31:52;4.30;;;2.67;;
25982;SDS011;13773;48.868;10.730;2023-02-20T10:34:33;5.17;;;2.50;;
25982;SDS011;13773;48.868;10.730;2023-02-20T10:39:40;5.43;;;2.50;;
25982;SDS011;13773;48.868;10.730;2023-02-20T10:42:15;4.73;;;2.60;;
25982;SDS011;13773;48.868;10.730;2023-02-20T10:44:55;5.40;;;2.67;;
25982;SDS011;13773;48.868;10.730;2023-02-20T10:47:28;5.43;;;2.53;;
25982;SDS011;13773;48.868;10.730;2023-02-20T10:50:31;6.13;;;2.33;;
25982;SDS011;13773;48.868;10.730;2023-02-20T10:53:24;4.30;;;2.30;;
25982;SDS011;13773;48.868;10.730;2023-02-20T10:56:00;3.83;;;2.13;;
25982;SDS011;13773;48.868;10.730;2023-02-20T11:01:18;4.60;;;2.60;;
25982;SDS011;13773;48.868;10.730;2023-02-20T11:03:54;3.23;;;2.30;;
25982;SDS011;13773;48.868;10.730;2023-02-20T11:06:46;6.90;;;2.83;;
25982;SDS011;13773;48.868;10.730;2023-02-20T11:09:18;4.53;;;2.60;;
25982;SDS011;13773;48.868;10.730;2023-02-20T11:11:44;3.47;;;2.33;;
25982;SDS011;13773;48.868;10.730;2023-02-20T11:14:15;5.83;;;2.70;;
25982;SDS011;13773;48.868;10.730;2023-02-20T11:19:29;5.63;;;2.40;;
25982;SDS011;13773;48.868;10.730;2023-02-20T11:22:07;5.37;;;2.47;;
25982;SDS011;13773;48.868;10.730;2023-02-20T11:27:02;6.50;;;2.63;;
25982;SDS011;13773;48.868;10.730;2023-02-20T11:29:54;7.53;;;3.50;;
25982;SDS011;13773;48.868;10.730;2023-02-20T11:32:39;4.67;;;2.60;;
25982;SDS011;13773;48.868;10.730;2023-02-20T11:35:20;4.77;;;2.23;;
25982;SDS011;13773;48.868;10.730;2023-02-20T11:40:57;4.70;;;2.23;;
25982;SDS011;13773;48.868;10.730;2023-02-20T11:43:32;3.67;;;2.03;;
25982;SDS011;13773;48.868;10.730;2023-02-20T11:46:16;4.10;;;2.00;;
25982;SDS011;13773;48.868;10.730;2023-02-20T11:54:11;3.87;;;2.10;;
25982;SDS011;13773;48.868;10.730;2023-02-20T11:56:58;4.93;;;2.27;;
25982;SDS011;13773;48.868;10.730;2023-02-20T12:02:09;5.03;;;2.50;;
25982;SDS011;13773;48.868;10.730;2023-02-20T12:10:47;6.63;;;2.30;;
25982;SDS011;13773;48.868;10.730;2023-02-20T12:12:51;2.80;;;1.90;;
25982;SDS011;13773;48.868;10.730;2023-02-20T12:15:18;4.47;;;1.90;;
25982;SDS011;13773;48.868;10.730;2023-02-20T12:20:51;3.27;;;2.10;;
25982;SDS011;13773;48.868;10.730;2023-02-20T12:28:58;5.67;;;2.13;;
25982;SDS011;13773;48.868;10.730;2023-02-20T12:34:27;4.80;;;1.90;;
25982;SDS011;13773;48.868;10.730;2023-02-20T12:45:07;4.53;;;2.10;;
25982;SDS011;13773;48.868;10.730;2023-02-20T12:48:00;3.17;;;1.83;;
25982;SDS011;13773;48.868;10.730;2023-02-20T12:59:21;3.10;;;1.60;;
25982;SDS011;13773;48.868;10.730;2023-02-20T13:01:51;1.93;;;1.33;;
25982;SDS011;13773;48.868;10.730;2023-02-20T13:07:13;4.13;;;1.90;;
25982;SDS011;13773;48.868;10.730;2023-02-20T13:09:55;4.83;;;1.70;;
25982;SDS011;13773;48.868;10.730;2023-02-20T13:12:36;3.50;;;1.60;;
25982;SDS011;13773;48.868;10.730;2023-02-20T13:20:43;2.73;;;1.40;;
25982;SDS011;13773;48.868;10.730;2023-02-20T13:23:42;4.07;;;1.40;;
25982;SDS011;13773;48.868;10.730;2023-02-20T13:31:46;4.27;;;1.47;;
25982;SDS011;13773;48.868;10.730;2023-02-20T13:36:43;3.17;;;1.67;;
25982;SDS011;13773;48.868;10.730;2023-02-20T13:44:33;4.07;;;1.47;;
25982;SDS011;13773;48.868;10.730;2023-02-20T13:55:19;3.00;;;1.40;;
25982;SDS011;13773;48.868;10.730;2023-02-20T14:00:19;3.50;;;1.53;;
25982;SDS011;13773;48.868;10.730;2023-02-20T14:02:52;3.07;;;1.30;;
25982;SDS011;13773;48.868;10.730;2023-02-20T14:07:55;3.13;;;1.30;;
25982;SDS011;13773;48.868;10.730;2023-02-20T14:10:24;2.97;;;1.20;;
25982;SDS011;13773;48.868;10.730;2023-02-20T14:12:56;1.93;;;1.27;;
25982;SDS011;13773;48.868;10.730;2023-02-20T14:15:29;3.30;;;1.37;;
25982;SDS011;13773;48.868;10.730;2023-02-20T14:17:57;2.83;;;1.00;;
25982;SDS011;13773;48.868;10.730;2023-02-20T14:20:33;4.47;;;1.50;;
25982;SDS011;13773;48.868;10.730;2023-02-20T14:23:08;9.17;;;1.53;;
25982;SDS011;13773;48.868;10.730;2023-02-20T14:25:55;4.03;;;1.20;;
25982;SDS011;13773;48.868;10.730;2023-02-20T14:28:23;2.40;;;0.90;;
25982;SDS011;13773;48.868;10.730;2023-02-20T14:31:02;2.60;;;1.37;;
25982;SDS011;13773;48.868;10.730;2023-02-20T14:33:30;3.03;;;1.27;;
25982;SDS011;13773;48.868;10.730;2023-02-20T14:36:01;3.70;;;1.10;;
25982;SDS011;13773;48.868;10.730;2023-02-20T14:41:35;2.27;;;1.07;;
25982;SDS011;13773;48.868;10.730;2023-02-20T14:44:03;2.50;;;0.97;;
25982;SDS011;13773;48.868;10.730;2023-02-20T14:46:35;3.27;;;1.47;;
25982;SDS011;13773;48.868;10.730;2023-02-20T14:51:34;3.17;;;1.20;;
25982;SDS011;13773;48.868;10.730;2023-02-20T14:54:01;2.33;;;1.10;;
25982;SDS011;13773;48.868;10.730;2023-02-20T14:56:40;4.97;;;1.40;;
25982;SDS011;13773;48.868;10.730;2023-02-20T14:59:22;2.10;;;1.23;;
25982;SDS011;13773;48.868;10.730;2023-02-20T15:01:52;2.63;;;1.20;;
25982;SDS011;13773;48.868;10.730;2023-02-20T15:04:21;4.80;;;1.40;;
25982;SDS011;13773;48.868;10.730;2023-02-20T15:06:49;3.50;;;1.33;;
25982;SDS011;13773;48.868;10.730;2023-02-20T15:09:17;3.43;;;1.20;;
25982;SDS011;13773;48.868;10.730;2023-02-20T15:11:49;2.23;;;1.07;;
25982;SDS011;13773;48.868;10.730;2023-02-20T15:14:23;1.03;;;0.80;;
25982;SDS011;13773;48.868;10.730;2023-02-20T15:19:36;3.67;;;1.23;;
25982;SDS011;13773;48.868;10.730;2023-02-20T15:22:03;2.60;;;1.03;;
25982;SDS011;13773;48.868;10.730;2023-02-20T15:24:36;3.63;;;1.23;;
25982;SDS011;13773;48.868;10.730;2023-02-20T15:27:09;1.33;;;0.90;;
25982;SDS011;13773;48.868;10.730;2023-02-20T15:29:43;3.13;;;1.40;;
25982;SDS011;13773;48.868;10.730;2023-02-20T15:34:47;6.73;;;1.63;;
25982;SDS011;13773;48.868;10.730;2023-02-20T15:39:51;3.80;;;1.10;;
25982;SDS011;13773;48.868;10.730;2023-02-20T15:42:18;2.53;;;1.20;;
25982;SDS011;13773;48.868;10.730;2023-02-20T15:44:46;2.43;;;1.13;;
25982;SDS011;13773;48.868;10.730;2023-02-20T15:47:12;3.30;;;1.37;;
25982;SDS011;13773;48.868;10.730;2023-02-20T15:49:38;2.17;;;1.00;;
25982;SDS011;13773;48.868;10.730;2023-02-20T15:52:05;4.70;;;1.00;;
25982;SDS011;13773;48.868;10.730;2023-02-20T15:54:34;3.17;;;1.60;;
25982;SDS011;13773;48.868;10.730;2023-02-20T15:57:01;2.87;;;1.30;;
25982;SDS011;13773;48.868;10.730;2023-02-20T15:59:26;4.27;;;1.40;;
25982;SDS011;13773;48.868;10.730;2023-02-20T16:01:52;3.17;;;1.73;;
25982;SDS011;13773;48.868;10.730;2023-02-20T16:04:18;4.17;;;1.73;;
25982;SDS011;13773;48.868;10.730;2023-02-20T16:06:44;3.93;;;1.73;;
25982;SDS011;13773;48.868;10.730;2023-02-20T16:09:10;3.87;;;1.63;;
25982;SDS011;13773;48.868;10.730;2023-02-20T16:11:45;2.97;;;1.40;;
25982;SDS011;13773;48.868;10.730;2023-02-20T16:14:13;3.73;;;1.67;;
25982;SDS011;13773;48.868;10.730;2023-02-20T16:16:40;2.67;;;1.40;;
25982;SDS011;13773;48.868;10.730;2023-02-20T16:19:18;2.87;;;1.73;;
25982;SDS011;13773;48.868;10.730;2023-02-20T16:21:45;2.33;;;1.50;;
25982;SDS011;13773;48.868;10.730;2023-02-20T16:24:12;3.63;;;1.60;;
25982;SDS011;13773;48.868;10.730;2023-02-20T16:26:39;1.73;;;1.30;;
25982;SDS011;13773;48.868;10.730;2023-02-20T16:29:10;2.60;;;1.30;;
25982;SDS011;13773;48.868;10.730;2023-02-20T16:34:25;4.10;;;1.70;;
25982;SDS011;13773;48.868;10.730;2023-02-20T16:36:59;3.93;;;2.00;;
25982;SDS011;13773;48.868;10.730;2023-02-20T16:39:26;4.10;;;2.90;;
25982;SDS011;13773;48.868;10.730;2023-02-20T16:41:52;5.73;;;2.70;;
25982;SDS011;13773;48.868;10.730;2023-02-20T16:44:20;9.77;;;4.73;;
25982;SDS011;13773;48.868;10.730;2023-02-20T16:47:14;9.20;;;6.10;;
25982;SDS011;13773;48.868;10.730;2023-02-20T16:49:42;11.67;;;7.33;;
25982;SDS011;13773;48.868;10.730;2023-02-20T16:52:12;8.33;;;5.77;;
25982;SDS011;13773;48.868;10.730;2023-02-20T16:54:58;9.50;;;4.83;;
25982;SDS011;13773;48.868;10.730;2023-02-20T16:57:26;9.63;;;5.40;;
25982;SDS011;13773;48.868;10.730;2023-02-20T16:59:53;7.70;;;4.87;;
25982;SDS011;13773;48.868;10.730;2023-02-20T17:02:23;9.87;;;5.20;;
25982;SDS011;13773;48.868;10.730;2023-02-20T17:04:50;8.97;;;4.47;;
25982;SDS011;13773;48.868;10.730;2023-02-20T17:07:16;7.10;;;4.50;;
25982;SDS011;13773;48.868;10.730;2023-02-20T17:09:42;6.37;;;4.40;;
25982;SDS011;13773;48.868;10.730;2023-02-20T17:12:08;2.90;;;2.03;;
25982;SDS011;13773;48.868;10.730;2023-02-20T17:14:34;3.80;;;1.70;;
25982;SDS011;13773;48.868;10.730;2023-02-20T17:17:00;2.27;;;1.30;;